sensor_id;sensor_type;location;lat;lon;timestamp;P1;durP1;ratioP1;P2;durP2;ratioP2
7875;SDS011;69649;53.712;9.680;2023-09-07T00:00:43;5.40;;;4.13;;
7875;SDS011;69649;53.712;9.680;2023-09-07T00:03:09;5.27;;;3.40;;
7875;SDS011;69649;53.712;9.680;2023-09-07T00:05:35;5.10;;;4.37;;
7875;SDS011;69649;53.712;9.680;2023-09-07T00:08:01;5.57;;;4.20;;
7875;SDS011;69649;53.712;9.680;2023-09-07T00:10:26;6.70;;;4.33;;
7875;SDS011;69649;53.712;9.680;2023-09-07T00:12:52;4.67;;;3.90;;
7875;SDS011;69649;53.712;9.680;2023-09-07T00:15:18;5.87;;;4.27;;
7875;SDS011;69649;53.712;9.680;2023-09-07T00:17:45;5.43;;;4.23;;
7875;SDS011;69649;53.712;9.680;2023-09-07T00:20:11;6.77;;;3.70;;
7875;SDS011;69649;53.712;9.680;2023-09-07T00:22:39;5.93;;;4.00;;
7875;SDS011;69649;53.712;9.680;2023-09-07T00:25:05;4.70;;;4.00;;
7875;SDS011;69649;53.712;9.680;2023-09-07T00:27:32;4.83;;;3.90;;
7875;SDS011;69649;53.712;9.680;2023-09-07T00:29:59;5.27;;;4.37;;
7875;SDS011;69649;53.712;9.680;2023-09-07T00:32:25;6.10;;;4.37;;
7875;SDS011;69649;53.712;9.680;2023-09-07T00:34:51;4.70;;;4.20;;
7875;SDS011;69649;53.712;9.680;2023-09-07T00:37:17;5.23;;;4.37;;
7875;SDS011;69649;53.712;9.680;2023-09-07T00:39:42;6.13;;;4.70;;
7875;SDS011;69649;53.712;9.680;2023-09-07T00:42:08;5.70;;;4.13;;
7875;SDS011;69649;53.712;9.680;2023-09-07T00:44:34;6.30;;;4.23;;
7875;SDS011;69649;53.712;9.680;2023-09-07T00:47:00;4.30;;;3.90;;
7875;SDS011;69649;53.712;9.680;2023-09-07T00:49:26;5.20;;;4.67;;
7875;SDS011;69649;53.712;9.680;2023-09-07T00:51:52;5.93;;;4.00;;
7875;SDS011;69649;53.712;9.680;2023-09-07T00:54:18;5.20;;;4.40;;
7875;SDS011;69649;53.712;9.680;2023-09-07T00:56:45;4.97;;;4.47;;
7875;SDS011;69649;53.712;9.680;2023-09-07T00:59:11;5.70;;;4.37;;
7875;SDS011;69649;53.712;9.680;2023-09-07T01:01:38;5.80;;;4.40;;
7875;SDS011;69649;53.712;9.680;2023-09-07T01:04:04;7.37;;;4.33;;
7875;SDS011;69649;53.712;9.680;2023-09-07T01:06:30;7.17;;;4.10;;
7875;SDS011;69649;53.712;9.680;2023-09-07T01:09:00;4.33;;;3.73;;
7875;SDS011;69649;53.712;9.680;2023-09-07T01:11:35;5.93;;;4.30;;
7875;SDS011;69649;53.712;9.680;2023-09-07T01:13:59;5.23;;;4.17;;
7875;SDS011;69649;53.712;9.680;2023-09-07T01:16:25;4.83;;;3.93;;
7875;SDS011;69649;53.712;9.680;2023-09-07T01:18:51;7.67;;;4.50;;
7875;SDS011;69649;53.712;9.680;2023-09-07T01:21:17;7.13;;;3.67;;
7875;SDS011;69649;53.712;9.680;2023-09-07T01:23:44;4.87;;;4.13;;
7875;SDS011;69649;53.712;9.680;2023-09-07T01:26:12;6.47;;;4.33;;
7875;SDS011;69649;53.712;9.680;2023-09-07T01:28:38;5.60;;;4.43;;
7875;SDS011;69649;53.712;9.680;2023-09-07T01:31:04;4.97;;;4.47;;
7875;SDS011;69649;53.712;9.680;2023-09-07T01:33:30;7.90;;;4.33;;
7875;SDS011;69649;53.712;9.680;2023-09-07T01:35:56;5.37;;;4.40;;
7875;SDS011;69649;53.712;9.680;2023-09-07T01:38:22;4.57;;;4.10;;
7875;SDS011;69649;53.712;9.680;2023-09-07T01:40:48;6.90;;;4.90;;
7875;SDS011;69649;53.712;9.680;2023-09-07T01:43:14;5.37;;;4.20;;
7875;SDS011;69649;53.712;9.680;2023-09-07T01:45:40;5.17;;;4.27;;
7875;SDS011;69649;53.712;9.680;2023-09-07T01:48:07;7.37;;;4.50;;
7875;SDS011;69649;53.712;9.680;2023-09-07T01:50:35;10.00;;;6.07;;
7875;SDS011;69649;53.712;9.680;2023-09-07T01:53:01;5.90;;;4.40;;
7875;SDS011;69649;53.712;9.680;2023-09-07T01:55:29;5.00;;;4.43;;
7875;SDS011;69649;53.712;9.680;2023-09-07T01:57:55;7.70;;;4.50;;
7875;SDS011;69649;53.712;9.680;2023-09-07T02:00:21;6.30;;;4.50;;
7875;SDS011;69649;53.712;9.680;2023-09-07T02:02:47;5.00;;;4.47;;
7875;SDS011;69649;53.712;9.680;2023-09-07T02:05:12;5.63;;;4.23;;
7875;SDS011;69649;53.712;9.680;2023-09-07T02:07:38;4.87;;;4.37;;
7875;SDS011;69649;53.712;9.680;2023-09-07T02:10:04;4.77;;;4.13;;
7875;SDS011;69649;53.712;9.680;2023-09-07T02:12:31;5.77;;;4.57;;
7875;SDS011;69649;53.712;9.680;2023-09-07T02:14:58;4.90;;;4.40;;
7875;SDS011;69649;53.712;9.680;2023-09-07T02:17:25;6.63;;;4.73;;
7875;SDS011;69649;53.712;9.680;2023-09-07T02:19:51;5.90;;;4.60;;
7875;SDS011;69649;53.712;9.680;2023-09-07T02:22:17;7.20;;;4.03;;
7875;SDS011;69649;53.712;9.680;2023-09-07T02:24:43;4.93;;;4.40;;
7875;SDS011;69649;53.712;9.680;2023-09-07T02:27:09;6.37;;;3.93;;
7875;SDS011;69649;53.712;9.680;2023-09-07T02:29:34;6.67;;;4.77;;
7875;SDS011;69649;53.712;9.680;2023-09-07T02:32:00;4.93;;;4.17;;
7875;SDS011;69649;53.712;9.680;2023-09-07T02:34:26;5.23;;;4.63;;
7875;SDS011;69649;53.712;9.680;2023-09-07T02:36:52;6.13;;;4.40;;
7875;SDS011;69649;53.712;9.680;2023-09-07T02:39:18;5.50;;;4.97;;
7875;SDS011;69649;53.712;9.680;2023-09-07T02:41:43;5.17;;;4.17;;
7875;SDS011;69649;53.712;9.680;2023-09-07T02:44:10;5.63;;;4.43;;
7875;SDS011;69649;53.712;9.680;2023-09-07T02:46:36;5.87;;;4.27;;
7875;SDS011;69649;53.712;9.680;2023-09-07T02:49:02;4.80;;;4.30;;
7875;SDS011;69649;53.712;9.680;2023-09-07T02:51:28;6.80;;;4.80;;
7875;SDS011;69649;53.712;9.680;2023-09-07T02:53:56;4.70;;;4.17;;
7875;SDS011;69649;53.712;9.680;2023-09-07T02:56:21;5.40;;;4.30;;
7875;SDS011;69649;53.712;9.680;2023-09-07T02:58:47;5.63;;;4.20;;
7875;SDS011;69649;53.712;9.680;2023-09-07T03:01:13;4.70;;;4.20;;
7875;SDS011;69649;53.712;9.680;2023-09-07T03:03:39;8.07;;;4.97;;
7875;SDS011;69649;53.712;9.680;2023-09-07T03:06:10;6.47;;;4.90;;
7875;SDS011;69649;53.712;9.680;2023-09-07T03:08:39;7.50;;;4.80;;
7875;SDS011;69649;53.712;9.680;2023-09-07T03:11:06;6.37;;;5.00;;
7875;SDS011;69649;53.712;9.680;2023-09-07T03:13:32;8.77;;;4.90;;
7875;SDS011;69649;53.712;9.680;2023-09-07T03:15:58;7.63;;;5.33;;
7875;SDS011;69649;53.712;9.680;2023-09-07T03:18:25;5.50;;;4.80;;
7875;SDS011;69649;53.712;9.680;2023-09-07T03:20:53;8.63;;;5.13;;
7875;SDS011;69649;53.712;9.680;2023-09-07T03:23:19;5.83;;;5.00;;
7875;SDS011;69649;53.712;9.680;2023-09-07T03:25:45;10.83;;;5.60;;
7875;SDS011;69649;53.712;9.680;2023-09-07T03:28:11;5.43;;;4.93;;
7875;SDS011;69649;53.712;9.680;2023-09-07T03:30:37;7.73;;;5.17;;
7875;SDS011;69649;53.712;9.680;2023-09-07T03:33:04;10.10;;;5.17;;
7875;SDS011;69649;53.712;9.680;2023-09-07T03:35:31;6.60;;;5.20;;
7875;SDS011;69649;53.712;9.680;2023-09-07T03:37:57;7.10;;;5.93;;
7875;SDS011;69649;53.712;9.680;2023-09-07T03:40:23;7.57;;;5.13;;
7875;SDS011;69649;53.712;9.680;2023-09-07T03:42:49;6.80;;;5.33;;
7875;SDS011;69649;53.712;9.680;2023-09-07T03:45:15;6.13;;;4.93;;
7875;SDS011;69649;53.712;9.680;2023-09-07T03:47:41;6.70;;;5.07;;
7875;SDS011;69649;53.712;9.680;2023-09-07T03:50:07;6.57;;;4.67;;
7875;SDS011;69649;53.712;9.680;2023-09-07T03:52:34;6.60;;;4.90;;
7875;SDS011;69649;53.712;9.680;2023-09-07T03:55:00;8.40;;;4.90;;
7875;SDS011;69649;53.712;9.680;2023-09-07T03:57:27;5.90;;;5.30;;
7875;SDS011;69649;53.712;9.680;2023-09-07T03:59:53;6.43;;;5.63;;
7875;SDS011;69649;53.712;9.680;2023-09-07T04:02:22;5.73;;;4.73;;
7875;SDS011;69649;53.712;9.680;2023-09-07T04:04:49;6.73;;;5.30;;
7875;SDS011;69649;53.712;9.680;2023-09-07T04:07:16;5.60;;;5.07;;
7875;SDS011;69649;53.712;9.680;2023-09-07T04:09:42;7.33;;;5.23;;
7875;SDS011;69649;53.712;9.680;2023-09-07T04:12:09;7.50;;;5.03;;
7875;SDS011;69649;53.712;9.680;2023-09-07T04:14:35;6.57;;;4.80;;
7875;SDS011;69649;53.712;9.680;2023-09-07T04:17:01;7.70;;;5.47;;
7875;SDS011;69649;53.712;9.680;2023-09-07T04:19:27;7.37;;;5.90;;
7875;SDS011;69649;53.712;9.680;2023-09-07T04:21:53;5.77;;;4.67;;
7875;SDS011;69649;53.712;9.680;2023-09-07T04:24:19;5.60;;;4.97;;
7875;SDS011;69649;53.712;9.680;2023-09-07T04:26:45;8.33;;;5.13;;
7875;SDS011;69649;53.712;9.680;2023-09-07T04:29:10;8.23;;;5.70;;
7875;SDS011;69649;53.712;9.680;2023-09-07T04:31:38;6.90;;;5.43;;
7875;SDS011;69649;53.712;9.680;2023-09-07T04:34:04;5.23;;;4.73;;
7875;SDS011;69649;53.712;9.680;2023-09-07T04:36:30;6.43;;;5.33;;
7875;SDS011;69649;53.712;9.680;2023-09-07T04:38:55;5.30;;;4.80;;
7875;SDS011;69649;53.712;9.680;2023-09-07T04:41:21;7.07;;;5.60;;
7875;SDS011;69649;53.712;9.680;2023-09-07T04:43:47;7.63;;;5.50;;
7875;SDS011;69649;53.712;9.680;2023-09-07T04:46:14;10.20;;;5.33;;
7875;SDS011;69649;53.712;9.680;2023-09-07T04:48:40;7.57;;;5.80;;
7875;SDS011;69649;53.712;9.680;2023-09-07T04:51:07;9.23;;;6.30;;
7875;SDS011;69649;53.712;9.680;2023-09-07T04:53:35;8.80;;;5.87;;
7875;SDS011;69649;53.712;9.680;2023-09-07T04:56:07;7.83;;;5.87;;
7875;SDS011;69649;53.712;9.680;2023-09-07T04:58:30;8.30;;;5.77;;
7875;SDS011;69649;53.712;9.680;2023-09-07T05:01:02;10.27;;;5.17;;
7875;SDS011;69649;53.712;9.680;2023-09-07T05:03:30;7.20;;;6.50;;
7875;SDS011;69649;53.712;9.680;2023-09-07T05:05:57;7.33;;;5.60;;
7875;SDS011;69649;53.712;9.680;2023-09-07T05:08:23;10.90;;;7.10;;
7875;SDS011;69649;53.712;9.680;2023-09-07T05:10:55;7.63;;;6.20;;
7875;SDS011;69649;53.712;9.680;2023-09-07T05:13:23;9.10;;;6.23;;
7875;SDS011;69649;53.712;9.680;2023-09-07T05:15:50;8.77;;;6.07;;
7875;SDS011;69649;53.712;9.680;2023-09-07T05:18:16;6.47;;;5.80;;
7875;SDS011;69649;53.712;9.680;2023-09-07T05:20:43;7.40;;;6.37;;
7875;SDS011;69649;53.712;9.680;2023-09-07T05:23:19;8.23;;;6.10;;
7875;SDS011;69649;53.712;9.680;2023-09-07T05:25:52;11.70;;;6.13;;
7875;SDS011;69649;53.712;9.680;2023-09-07T05:28:19;10.60;;;5.90;;
7875;SDS011;69649;53.712;9.680;2023-09-07T05:30:46;7.20;;;6.43;;
7875;SDS011;69649;53.712;9.680;2023-09-07T05:33:13;6.70;;;6.00;;
7875;SDS011;69649;53.712;9.680;2023-09-07T05:35:40;5.70;;;5.10;;
7875;SDS011;69649;53.712;9.680;2023-09-07T05:38:07;7.60;;;5.37;;
7875;SDS011;69649;53.712;9.680;2023-09-07T05:40:36;7.13;;;5.20;;
7875;SDS011;69649;53.712;9.680;2023-09-07T05:43:05;5.73;;;4.60;;
7875;SDS011;69649;53.712;9.680;2023-09-07T05:45:36;7.20;;;5.40;;
7875;SDS011;69649;53.712;9.680;2023-09-07T05:48:02;7.77;;;5.67;;
7875;SDS011;69649;53.712;9.680;2023-09-07T05:50:28;6.93;;;5.23;;
7875;SDS011;69649;53.712;9.680;2023-09-07T05:52:54;7.07;;;5.57;;
7875;SDS011;69649;53.712;9.680;2023-09-07T05:55:20;6.37;;;5.77;;
7875;SDS011;69649;53.712;9.680;2023-09-07T05:57:46;8.03;;;5.77;;
7875;SDS011;69649;53.712;9.680;2023-09-07T06:00:14;7.63;;;5.30;;
7875;SDS011;69649;53.712;9.680;2023-09-07T06:02:42;7.17;;;5.57;;
7875;SDS011;69649;53.712;9.680;2023-09-07T06:05:09;7.67;;;6.07;;
7875;SDS011;69649;53.712;9.680;2023-09-07T06:07:36;6.00;;;5.30;;
7875;SDS011;69649;53.712;9.680;2023-09-07T06:10:02;8.30;;;6.20;;
7875;SDS011;69649;53.712;9.680;2023-09-07T06:12:30;8.50;;;5.10;;
7875;SDS011;69649;53.712;9.680;2023-09-07T06:14:56;8.67;;;5.57;;
7875;SDS011;69649;53.712;9.680;2023-09-07T06:17:22;6.20;;;5.20;;
7875;SDS011;69649;53.712;9.680;2023-09-07T06:19:48;7.17;;;4.83;;
7875;SDS011;69649;53.712;9.680;2023-09-07T06:22:14;6.60;;;5.53;;
7875;SDS011;69649;53.712;9.680;2023-09-07T06:24:40;8.20;;;5.00;;
7875;SDS011;69649;53.712;9.680;2023-09-07T06:27:06;5.90;;;4.87;;
7875;SDS011;69649;53.712;9.680;2023-09-07T06:29:31;6.63;;;5.47;;
7875;SDS011;69649;53.712;9.680;2023-09-07T06:31:57;7.27;;;5.37;;
7875;SDS011;69649;53.712;9.680;2023-09-07T06:34:23;7.27;;;5.30;;
7875;SDS011;69649;53.712;9.680;2023-09-07T06:36:49;7.43;;;5.40;;
7875;SDS011;69649;53.712;9.680;2023-09-07T06:39:15;5.97;;;5.37;;
7875;SDS011;69649;53.712;9.680;2023-09-07T06:41:41;5.40;;;4.90;;
7875;SDS011;69649;53.712;9.680;2023-09-07T06:44:07;5.57;;;4.90;;
7875;SDS011;69649;53.712;9.680;2023-09-07T06:46:33;7.50;;;5.10;;
7875;SDS011;69649;53.712;9.680;2023-09-07T06:48:59;8.53;;;5.20;;
7875;SDS011;69649;53.712;9.680;2023-09-07T06:51:24;5.90;;;4.97;;
7875;SDS011;69649;53.712;9.680;2023-09-07T06:53:50;5.57;;;4.80;;
7875;SDS011;69649;53.712;9.680;2023-09-07T06:56:16;7.53;;;5.07;;
7875;SDS011;69649;53.712;9.680;2023-09-07T06:58:42;6.53;;;4.97;;
7875;SDS011;69649;53.712;9.680;2023-09-07T07:01:07;5.77;;;5.03;;
7875;SDS011;69649;53.712;9.680;2023-09-07T07:03:33;5.50;;;4.87;;
7875;SDS011;69649;53.712;9.680;2023-09-07T07:05:59;5.90;;;4.90;;
7875;SDS011;69649;53.712;9.680;2023-09-07T07:08:25;6.53;;;5.30;;
7875;SDS011;69649;53.712;9.680;2023-09-07T07:10:51;9.00;;;4.90;;
7875;SDS011;69649;53.712;9.680;2023-09-07T07:13:18;8.47;;;4.80;;
7875;SDS011;69649;53.712;9.680;2023-09-07T07:15:44;9.20;;;4.57;;
7875;SDS011;69649;53.712;9.680;2023-09-07T07:18:09;6.87;;;4.37;;
7875;SDS011;69649;53.712;9.680;2023-09-07T07:20:36;6.13;;;4.60;;
7875;SDS011;69649;53.712;9.680;2023-09-07T07:23:02;6.07;;;4.37;;
7875;SDS011;69649;53.712;9.680;2023-09-07T07:25:28;7.43;;;4.57;;
7875;SDS011;69649;53.712;9.680;2023-09-07T07:27:56;6.23;;;4.77;;
7875;SDS011;69649;53.712;9.680;2023-09-07T07:30:22;5.47;;;4.73;;
7875;SDS011;69649;53.712;9.680;2023-09-07T07:32:48;6.63;;;4.60;;
7875;SDS011;69649;53.712;9.680;2023-09-07T07:35:13;6.10;;;4.67;;
7875;SDS011;69649;53.712;9.680;2023-09-07T07:37:40;6.40;;;4.00;;
7875;SDS011;69649;53.712;9.680;2023-09-07T07:40:06;4.87;;;3.90;;
7875;SDS011;69649;53.712;9.680;2023-09-07T07:42:32;6.70;;;4.43;;
7875;SDS011;69649;53.712;9.680;2023-09-07T07:44:58;9.50;;;5.33;;
7875;SDS011;69649;53.712;9.680;2023-09-07T07:47:24;5.10;;;4.00;;
7875;SDS011;69649;53.712;9.680;2023-09-07T07:49:52;5.73;;;3.80;;
7875;SDS011;69649;53.712;9.680;2023-09-07T07:52:17;5.67;;;4.43;;
7875;SDS011;69649;53.712;9.680;2023-09-07T07:54:43;6.30;;;4.43;;
7875;SDS011;69649;53.712;9.680;2023-09-07T07:57:09;6.17;;;4.40;;
7875;SDS011;69649;53.712;9.680;2023-09-07T07:59:36;6.67;;;4.33;;
7875;SDS011;69649;53.712;9.680;2023-09-07T08:02:02;5.80;;;4.10;;
7875;SDS011;69649;53.712;9.680;2023-09-07T08:04:28;5.60;;;4.20;;
7875;SDS011;69649;53.712;9.680;2023-09-07T08:06:54;4.40;;;3.77;;
7875;SDS011;69649;53.712;9.680;2023-09-07T08:09:22;4.73;;;4.10;;
7875;SDS011;69649;53.712;9.680;2023-09-07T08:11:47;7.00;;;3.70;;
7875;SDS011;69649;53.712;9.680;2023-09-07T08:14:13;5.23;;;4.30;;
7875;SDS011;69649;53.712;9.680;2023-09-07T08:16:39;6.27;;;3.80;;
7875;SDS011;69649;53.712;9.680;2023-09-07T08:19:05;6.30;;;3.77;;
7875;SDS011;69649;53.712;9.680;2023-09-07T08:21:31;5.17;;;3.40;;
7875;SDS011;69649;53.712;9.680;2023-09-07T08:23:56;6.57;;;3.10;;
7875;SDS011;69649;53.712;9.680;2023-09-07T08:26:22;6.53;;;4.10;;
7875;SDS011;69649;53.712;9.680;2023-09-07T08:28:48;4.30;;;3.50;;
7875;SDS011;69649;53.712;9.680;2023-09-07T08:31:14;6.17;;;3.70;;
7875;SDS011;69649;53.712;9.680;2023-09-07T08:33:41;4.10;;;3.50;;
7875;SDS011;69649;53.712;9.680;2023-09-07T08:36:07;6.50;;;3.53;;
7875;SDS011;69649;53.712;9.680;2023-09-07T08:38:34;6.83;;;3.43;;
7875;SDS011;69649;53.712;9.680;2023-09-07T08:41:00;4.53;;;3.97;;
7875;SDS011;69649;53.712;9.680;2023-09-07T08:43:29;4.70;;;3.17;;
7875;SDS011;69649;53.712;9.680;2023-09-07T08:46:03;6.70;;;4.00;;
7875;SDS011;69649;53.712;9.680;2023-09-07T08:48:28;4.53;;;3.83;;
7875;SDS011;69649;53.712;9.680;2023-09-07T08:50:56;3.57;;;3.20;;
7875;SDS011;69649;53.712;9.680;2023-09-07T08:53:22;6.47;;;4.37;;
7875;SDS011;69649;53.712;9.680;2023-09-07T08:55:48;7.47;;;4.33;;
7875;SDS011;69649;53.712;9.680;2023-09-07T08:58:14;4.37;;;3.73;;
7875;SDS011;69649;53.712;9.680;2023-09-07T09:00:40;7.53;;;3.80;;
7875;SDS011;69649;53.712;9.680;2023-09-07T09:03:09;6.23;;;3.57;;
7875;SDS011;69649;53.712;9.680;2023-09-07T09:05:35;6.60;;;3.77;;
7875;SDS011;69649;53.712;9.680;2023-09-07T09:08:08;5.40;;;3.67;;
7875;SDS011;69649;53.712;9.680;2023-09-07T09:10:34;5.73;;;3.50;;
7875;SDS011;69649;53.712;9.680;2023-09-07T09:12:59;5.33;;;4.07;;
7875;SDS011;69649;53.712;9.680;2023-09-07T09:15:25;3.97;;;3.57;;
7875;SDS011;69649;53.712;9.680;2023-09-07T09:17:54;5.13;;;3.73;;
7875;SDS011;69649;53.712;9.680;2023-09-07T09:20:20;5.87;;;3.77;;
7875;SDS011;69649;53.712;9.680;2023-09-07T09:22:49;5.03;;;4.00;;
7875;SDS011;69649;53.712;9.680;2023-09-07T09:25:17;6.07;;;3.53;;
7875;SDS011;69649;53.712;9.680;2023-09-07T09:27:43;3.50;;;3.20;;
7875;SDS011;69649;53.712;9.680;2023-09-07T09:30:10;5.40;;;3.70;;
7875;SDS011;69649;53.712;9.680;2023-09-07T09:32:37;5.30;;;4.00;;
7875;SDS011;69649;53.712;9.680;2023-09-07T09:35:05;4.53;;;3.43;;
7875;SDS011;69649;53.712;9.680;2023-09-07T09:37:32;5.00;;;3.60;;
7875;SDS011;69649;53.712;9.680;2023-09-07T09:39:57;4.43;;;3.73;;
7875;SDS011;69649;53.712;9.680;2023-09-07T09:42:25;4.37;;;3.63;;
7875;SDS011;69649;53.712;9.680;2023-09-07T09:44:52;4.75;;;3.95;;
7875;SDS011;69649;53.712;9.680;2023-09-07T09:47:19;4.97;;;3.27;;
7875;SDS011;69649;53.712;9.680;2023-09-07T09:49:47;4.62;;;4.03;;
7875;SDS011;69649;53.712;9.680;2023-09-07T09:52:15;4.17;;;3.30;;
7875;SDS011;69649;53.712;9.680;2023-09-07T09:54:41;7.50;;;3.63;;
7875;SDS011;69649;53.712;9.680;2023-09-07T09:57:08;4.78;;;3.25;;
7875;SDS011;69649;53.712;9.680;2023-09-07T09:59:34;3.45;;;2.80;;
7875;SDS011;69649;53.712;9.680;2023-09-07T10:02:00;4.95;;;3.25;;
7875;SDS011;69649;53.712;9.680;2023-09-07T10:04:28;4.17;;;3.00;;
7875;SDS011;69649;53.712;9.680;2023-09-07T10:06:55;4.53;;;3.42;;
7875;SDS011;69649;53.712;9.680;2023-09-07T10:09:23;6.58;;;4.03;;
7875;SDS011;69649;53.712;9.680;2023-09-07T10:11:52;5.95;;;3.30;;
7875;SDS011;69649;53.712;9.680;2023-09-07T10:14:19;4.77;;;3.03;;
7875;SDS011;69649;53.712;9.680;2023-09-07T10:16:49;6.47;;;2.90;;
7875;SDS011;69649;53.712;9.680;2023-09-07T10:19:24;5.03;;;3.17;;
7875;SDS011;69649;53.712;9.680;2023-09-07T10:21:54;5.25;;;3.20;;
7875;SDS011;69649;53.712;9.680;2023-09-07T10:24:28;4.17;;;2.62;;
7875;SDS011;69649;53.712;9.680;2023-09-07T10:29:51;3.67;;;2.80;;
7875;SDS011;69649;53.712;9.680;2023-09-07T10:32:20;5.12;;;2.85;;
7875;SDS011;69649;53.712;9.680;2023-09-07T10:34:46;3.35;;;2.52;;
7875;SDS011;69649;53.712;9.680;2023-09-07T10:37:13;6.03;;;2.80;;
7875;SDS011;69649;53.712;9.680;2023-09-07T10:39:40;7.03;;;3.17;;
7875;SDS011;69649;53.712;9.680;2023-09-07T10:42:25;2.93;;;2.63;;
7875;SDS011;69649;53.712;9.680;2023-09-07T10:44:51;5.62;;;3.40;;
7875;SDS011;69649;53.712;9.680;2023-09-07T10:47:18;6.17;;;2.90;;
7875;SDS011;69649;53.712;9.680;2023-09-07T10:49:43;5.07;;;3.00;;
7875;SDS011;69649;53.712;9.680;2023-09-07T10:52:09;4.05;;;2.90;;
7875;SDS011;69649;53.712;9.680;2023-09-07T10:54:35;5.27;;;3.17;;
7875;SDS011;69649;53.712;9.680;2023-09-07T10:57:08;5.77;;;3.07;;
7875;SDS011;69649;53.712;9.680;2023-09-07T10:59:35;3.37;;;3.07;;
7875;SDS011;69649;53.712;9.680;2023-09-07T11:02:04;4.43;;;3.23;;
7875;SDS011;69649;53.712;9.680;2023-09-07T11:04:30;4.50;;;2.50;;
7875;SDS011;69649;53.712;9.680;2023-09-07T11:06:56;5.13;;;3.03;;
7875;SDS011;69649;53.712;9.680;2023-09-07T11:09:22;3.17;;;2.77;;
7875;SDS011;69649;53.712;9.680;2023-09-07T11:11:48;5.03;;;2.92;;
7875;SDS011;69649;53.712;9.680;2023-09-07T11:14:14;5.55;;;3.00;;
7875;SDS011;69649;53.712;9.680;2023-09-07T11:16:40;3.93;;;2.97;;
7875;SDS011;69649;53.712;9.680;2023-09-07T11:19:06;7.28;;;3.05;;
7875;SDS011;69649;53.712;9.680;2023-09-07T11:21:36;4.17;;;2.98;;
7875;SDS011;69649;53.712;9.680;2023-09-07T11:24:02;3.00;;;2.62;;
7875;SDS011;69649;53.712;9.680;2023-09-07T11:26:40;3.85;;;2.58;;
7875;SDS011;69649;53.712;9.680;2023-09-07T11:29:13;4.42;;;3.20;;
7875;SDS011;69649;53.712;9.680;2023-09-07T11:31:41;4.03;;;2.70;;
7875;SDS011;69649;53.712;9.680;2023-09-07T11:34:12;3.52;;;2.60;;
7875;SDS011;69649;53.712;9.680;2023-09-07T11:36:39;4.15;;;2.47;;
7875;SDS011;69649;53.712;9.680;2023-09-07T11:39:06;3.47;;;2.33;;
7875;SDS011;69649;53.712;9.680;2023-09-07T11:41:33;4.47;;;2.67;;
7875;SDS011;69649;53.712;9.680;2023-09-07T11:43:59;4.37;;;3.02;;
7875;SDS011;69649;53.712;9.680;2023-09-07T11:46:25;5.22;;;2.98;;
7875;SDS011;69649;53.712;9.680;2023-09-07T11:48:50;5.72;;;2.80;;
7875;SDS011;69649;53.712;9.680;2023-09-07T11:51:16;4.28;;;3.00;;
7875;SDS011;69649;53.712;9.680;2023-09-07T11:53:42;3.27;;;2.58;;
7875;SDS011;69649;53.712;9.680;2023-09-07T11:56:08;10.88;;;3.30;;
7875;SDS011;69649;53.712;9.680;2023-09-07T11:58:33;3.80;;;2.33;;
7875;SDS011;69649;53.712;9.680;2023-09-07T12:00:59;3.15;;;2.45;;
7875;SDS011;69649;53.712;9.680;2023-09-07T12:03:25;5.30;;;2.87;;
7875;SDS011;69649;53.712;9.680;2023-09-07T12:05:51;3.25;;;2.42;;
7875;SDS011;69649;53.712;9.680;2023-09-07T12:08:17;6.85;;;2.55;;
7875;SDS011;69649;53.712;9.680;2023-09-07T12:10:43;5.47;;;2.75;;
7875;SDS011;69649;53.712;9.680;2023-09-07T12:13:08;6.08;;;2.75;;
7875;SDS011;69649;53.712;9.680;2023-09-07T12:15:34;5.83;;;2.30;;
7875;SDS011;69649;53.712;9.680;2023-09-07T12:18:00;5.17;;;2.70;;
7875;SDS011;69649;53.712;9.680;2023-09-07T12:20:26;4.47;;;2.90;;
7875;SDS011;69649;53.712;9.680;2023-09-07T12:22:52;4.70;;;3.10;;
7875;SDS011;69649;53.712;9.680;2023-09-07T12:25:17;4.12;;;2.60;;
7875;SDS011;69649;53.712;9.680;2023-09-07T12:27:43;4.72;;;2.70;;
7875;SDS011;69649;53.712;9.680;2023-09-07T12:30:10;4.20;;;2.80;;
7875;SDS011;69649;53.712;9.680;2023-09-07T12:32:42;3.33;;;2.58;;
7875;SDS011;69649;53.712;9.680;2023-09-07T12:35:06;4.83;;;3.50;;
7875;SDS011;69649;53.712;9.680;2023-09-07T12:37:35;4.70;;;2.80;;
7875;SDS011;69649;53.712;9.680;2023-09-07T12:40:01;3.52;;;2.50;;
7875;SDS011;69649;53.712;9.680;2023-09-07T12:42:30;4.45;;;2.52;;
7875;SDS011;69649;53.712;9.680;2023-09-07T12:44:56;5.37;;;2.75;;
7875;SDS011;69649;53.712;9.680;2023-09-07T12:47:22;3.85;;;2.40;;
7875;SDS011;69649;53.712;9.680;2023-09-07T12:49:47;4.92;;;2.80;;
7875;SDS011;69649;53.712;9.680;2023-09-07T12:52:13;7.03;;;2.95;;
7875;SDS011;69649;53.712;9.680;2023-09-07T12:54:40;4.20;;;2.77;;
7875;SDS011;69649;53.712;9.680;2023-09-07T12:57:06;4.65;;;2.83;;
7875;SDS011;69649;53.712;9.680;2023-09-07T12:59:32;5.28;;;2.45;;
7875;SDS011;69649;53.712;9.680;2023-09-07T13:01:58;3.90;;;2.65;;
7875;SDS011;69649;53.712;9.680;2023-09-07T13:04:24;4.78;;;2.70;;
7875;SDS011;69649;53.712;9.680;2023-09-07T13:06:50;3.62;;;2.47;;
7875;SDS011;69649;53.712;9.680;2023-09-07T13:09:15;7.83;;;2.60;;
7875;SDS011;69649;53.712;9.680;2023-09-07T13:11:41;2.92;;;2.27;;
7875;SDS011;69649;53.712;9.680;2023-09-07T13:14:07;3.83;;;2.60;;
7875;SDS011;69649;53.712;9.680;2023-09-07T13:16:36;2.95;;;2.20;;
7875;SDS011;69649;53.712;9.680;2023-09-07T13:19:02;4.90;;;2.62;;
7875;SDS011;69649;53.712;9.680;2023-09-07T13:21:27;7.78;;;4.20;;
7875;SDS011;69649;53.712;9.680;2023-09-07T13:23:53;7.12;;;4.17;;
7875;SDS011;69649;53.712;9.680;2023-09-07T13:26:19;4.50;;;2.47;;
7875;SDS011;69649;53.712;9.680;2023-09-07T13:28:45;3.37;;;2.60;;
7875;SDS011;69649;53.712;9.680;2023-09-07T13:31:11;3.25;;;2.55;;
7875;SDS011;69649;53.712;9.680;2023-09-07T13:33:37;4.85;;;2.77;;
7875;SDS011;69649;53.712;9.680;2023-09-07T13:36:03;4.65;;;3.37;;
7875;SDS011;69649;53.712;9.680;2023-09-07T13:38:29;6.08;;;3.67;;
7875;SDS011;69649;53.712;9.680;2023-09-07T13:40:55;7.62;;;5.08;;
7875;SDS011;69649;53.712;9.680;2023-09-07T13:43:21;7.12;;;4.72;;
7875;SDS011;69649;53.712;9.680;2023-09-07T13:45:46;5.25;;;3.52;;
7875;SDS011;69649;53.712;9.680;2023-09-07T13:48:13;12.30;;;4.80;;
7875;SDS011;69649;53.712;9.680;2023-09-07T13:50:39;4.87;;;3.22;;
7875;SDS011;69649;53.712;9.680;2023-09-07T13:53:05;3.00;;;2.70;;
7875;SDS011;69649;53.712;9.680;2023-09-07T13:55:30;3.30;;;3.00;;
7875;SDS011;69649;53.712;9.680;2023-09-07T13:57:56;4.67;;;2.87;;
7875;SDS011;69649;53.712;9.680;2023-09-07T14:00:22;4.40;;;2.72;;
7875;SDS011;69649;53.712;9.680;2023-09-07T14:02:48;6.03;;;3.00;;
7875;SDS011;69649;53.712;9.680;2023-09-07T14:05:14;5.08;;;3.30;;
7875;SDS011;69649;53.712;9.680;2023-09-07T14:07:40;6.25;;;3.08;;
7875;SDS011;69649;53.712;9.680;2023-09-07T14:10:06;4.70;;;3.17;;
7875;SDS011;69649;53.712;9.680;2023-09-07T14:12:33;6.58;;;2.92;;
7875;SDS011;69649;53.712;9.680;2023-09-07T14:14:58;3.77;;;2.65;;
7875;SDS011;69649;53.712;9.680;2023-09-07T14:17:24;3.30;;;2.65;;
7875;SDS011;69649;53.712;9.680;2023-09-07T14:19:50;4.25;;;2.77;;
7875;SDS011;69649;53.712;9.680;2023-09-07T14:22:16;3.20;;;2.90;;
7875;SDS011;69649;53.712;9.680;2023-09-07T14:24:41;5.08;;;3.20;;
7875;SDS011;69649;53.712;9.680;2023-09-07T14:27:07;6.50;;;3.30;;
7875;SDS011;69649;53.712;9.680;2023-09-07T14:29:34;6.37;;;3.00;;
7875;SDS011;69649;53.712;9.680;2023-09-07T14:32:02;3.50;;;3.12;;
7875;SDS011;69649;53.712;9.680;2023-09-07T14:34:28;7.80;;;2.92;;
7875;SDS011;69649;53.712;9.680;2023-09-07T14:36:54;5.03;;;3.00;;
7875;SDS011;69649;53.712;9.680;2023-09-07T14:39:21;4.80;;;3.12;;
7875;SDS011;69649;53.712;9.680;2023-09-07T14:41:48;4.87;;;3.52;;
7875;SDS011;69649;53.712;9.680;2023-09-07T14:44:14;5.37;;;3.10;;
7875;SDS011;69649;53.712;9.680;2023-09-07T14:46:40;5.33;;;2.70;;
7875;SDS011;69649;53.712;9.680;2023-09-07T14:49:06;3.33;;;2.95;;
7875;SDS011;69649;53.712;9.680;2023-09-07T14:51:32;4.53;;;3.05;;
7875;SDS011;69649;53.712;9.680;2023-09-07T14:53:57;9.78;;;2.90;;
7875;SDS011;69649;53.712;9.680;2023-09-07T14:56:24;5.15;;;2.90;;
7875;SDS011;69649;53.712;9.680;2023-09-07T14:58:50;3.02;;;2.72;;